אצלינו בטטות מזרם סילון, בNY הטיימס סקוואר בשעה זו

  • פותח הנושא tcu6
  • פורסם בתאריך

tcu6

New member
אצלינו בטטות מזרם סילון, בNY הטיימס סקוואר בשעה זו

עובדי תחזוקה גורפים שלג מהמדרכות. שלג יורד.
טמפ 25F (מינוס 4 מעלות לערך)

 

tcu6

New member
TAF ניו-יורקי לשדה התעופה קנדי

TAF: KJFK 262032Z 2621/2724 03020G26KT 3/4SM -SN BR BKN008 OVC019 TEMPO 2621/2623 3SM -SN BR SCT008 OVC019 FM262300 03022G30KT 1/2SM SN FZFG VV005 FM270300 01025G35KT 1/4SM +SN FZFG VV003 FM271500 34024G35KT 1/2SM SN FZFG VV008 FM272200 34026G38KT 2SM -SN BLSN OVC020
שלג קל,
משעות הערב המוקדמות- שם- ירד שלג רוח עם משבים עד 30 קשר.
ערפל קפוא
מ10 בלילה שעון מקומי- ירד שלג כבד, ערפל קפוא , משבי רוח עד 35 קשר.
מ10 בבוקר , זמן מקומי, שלג, ערפל קפוא משבי רוח עד 35 קשר.
מ5 בערב -זמן מקומי- שלג קל, רוח עם משבים עד 38 קשר, בליזרד- שלג מועף ברוח.

האמת די דומה לTAF מבן גוריון.
 
למעלה